createdAt,value
2023-03-04T00:00:50.494Z,1.83
2023-03-04T00:03:22.239Z,1.77
2023-03-04T00:05:53.831Z,1.81
2023-03-04T00:08:25.340Z,1.74
2023-03-04T00:10:56.830Z,1.69
2023-03-04T00:13:28.436Z,1.71
2023-03-04T00:16:00.023Z,1.70
2023-03-04T00:18:31.578Z,1.73
2023-03-04T00:21:03.155Z,1.73
2023-03-04T00:23:34.698Z,1.74
2023-03-04T00:26:06.299Z,1.76
2023-03-04T00:28:38.862Z,1.79
2023-03-04T00:31:10.410Z,1.85
2023-03-04T00:33:44.428Z,1.83
2023-03-04T00:36:16.131Z,1.83
2023-03-04T00:38:48.138Z,1.93
2023-03-04T00:41:19.674Z,1.98
2023-03-04T00:43:51.355Z,2.06
2023-03-04T00:46:22.884Z,2.09
2023-03-04T00:48:54.851Z,2.12
2023-03-04T00:51:26.345Z,2.18
2023-03-04T00:54:00.405Z,2.14
2023-03-04T00:56:32.405Z,2.16
2023-03-04T00:59:04.169Z,2.23
2023-03-04T01:01:35.740Z,2.17
2023-03-04T01:04:07.636Z,2.18
2023-03-04T01:06:39.152Z,2.23
2023-03-04T01:09:10.966Z,2.29
2023-03-04T01:11:42.458Z,2.18
2023-03-04T01:14:14.078Z,2.17
2023-03-04T01:16:45.612Z,2.28
2023-03-04T01:19:17.177Z,2.28
2023-03-04T01:21:48.710Z,2.29
2023-03-04T01:24:20.584Z,2.28
2023-03-04T01:26:52.097Z,2.34
2023-03-04T01:29:23.895Z,2.28
2023-03-04T01:31:55.418Z,2.30
2023-03-04T01:34:27.018Z,2.35
2023-03-04T01:36:58.582Z,2.34
2023-03-04T01:39:30.146Z,2.38
2023-03-04T01:42:01.707Z,2.33
2023-03-04T01:44:33.275Z,2.35
2023-03-04T01:47:04.772Z,2.41
2023-03-04T01:49:36.858Z,2.42
2023-03-04T01:52:08.374Z,2.36
2023-03-04T01:54:40.338Z,2.47
2023-03-04T01:57:11.862Z,2.49
2023-03-04T01:59:43.693Z,2.51
2023-03-04T02:02:15.228Z,2.58
2023-03-04T02:04:47.205Z,2.04
2023-03-04T02:07:18.739Z,2.59
2023-03-04T02:09:50.279Z,2.56
2023-03-04T02:12:21.794Z,2.63
2023-03-04T02:14:53.652Z,2.69
2023-03-04T02:17:25.178Z,2.68
2023-03-04T02:19:57.044Z,2.68
2023-03-04T02:22:28.554Z,2.71
2023-03-04T02:25:00.482Z,2.78
2023-03-04T02:27:32.026Z,2.82
2023-03-04T02:30:03.846Z,2.84
2023-03-04T02:32:35.387Z,2.82
2023-03-04T02:35:07.263Z,2.82
2023-03-04T02:37:38.773Z,2.93
2023-03-04T02:40:10.538Z,2.87
2023-03-04T02:42:42.042Z,2.89
2023-03-04T02:45:13.764Z,2.91
2023-03-04T02:47:45.259Z,2.90
2023-03-04T02:50:17.105Z,2.94
2023-03-04T02:52:48.625Z,2.90
2023-03-04T02:55:20.411Z,2.94
2023-03-04T02:57:51.919Z,2.97
2023-03-04T03:00:23.810Z,3.02
2023-03-04T03:02:57.043Z,3.06
2023-03-04T03:05:28.645Z,1.90
2023-03-04T03:08:00.251Z,3.09
2023-03-04T03:10:31.809Z,3.12
2023-03-04T03:13:03.304Z,3.09
2023-03-04T03:15:35.866Z,3.14
2023-03-04T03:18:07.379Z,3.12
2023-03-04T03:20:39.360Z,3.07
2023-03-04T03:23:10.899Z,3.23
2023-03-04T03:25:42.408Z,3.22
2023-03-04T03:28:13.912Z,3.20
2023-03-04T03:30:45.651Z,3.17
2023-03-04T03:33:17.178Z,3.06
2023-03-04T03:35:49.112Z,3.15
2023-03-04T03:38:20.657Z,3.14
2023-03-04T03:40:52.549Z,3.20
2023-03-04T03:43:24.131Z,3.20
2023-03-04T03:45:55.746Z,3.21
2023-03-04T03:48:27.336Z,3.23
2023-03-04T03:50:59.254Z,3.21
2023-03-04T03:53:30.751Z,3.20
2023-03-04T03:56:02.256Z,3.19
2023-03-04T03:58:33.759Z,3.05
2023-03-04T04:01:05.524Z,3.13
2023-03-04T04:03:37.045Z,3.05
2023-03-04T04:06:08.577Z,3.08
2023-03-04T04:08:40.086Z,3.10
2023-03-04T04:11:11.894Z,3.11
2023-03-04T04:13:43.443Z,3.10
2023-03-04T04:16:15.377Z,3.18
2023-03-04T04:18:46.912Z,3.17
2023-03-04T04:21:18.667Z,3.30
2023-03-04T04:23:50.335Z,3.26
2023-03-04T04:26:21.879Z,3.23
2023-03-04T04:28:53.388Z,3.29
2023-03-04T04:31:25.087Z,3.35
2023-03-04T04:33:56.676Z,3.36
2023-03-04T04:36:28.243Z,3.40
2023-03-04T04:38:59.755Z,3.39
2023-03-04T04:41:31.973Z,3.36
2023-03-04T04:44:03.470Z,3.45
2023-03-04T04:46:35.448Z,3.42
2023-03-04T04:49:07.078Z,3.52
2023-03-04T04:51:39.141Z,3.54
2023-03-04T04:54:10.827Z,3.45
2023-03-04T04:56:42.593Z,3.56
2023-03-04T04:59:14.169Z,3.45
2023-03-04T05:01:45.989Z,3.47
2023-03-04T05:04:17.528Z,3.63
2023-03-04T05:06:49.087Z,3.56
2023-03-04T05:09:22.913Z,3.60
2023-03-04T05:11:54.832Z,3.60
2023-03-04T05:14:26.441Z,3.61
2023-03-04T05:16:58.385Z,3.67
2023-03-04T05:19:29.925Z,3.69
2023-03-04T05:22:01.456Z,3.74
2023-03-04T05:24:33.294Z,3.66
2023-03-04T05:27:04.821Z,3.74
2023-03-04T05:29:36.320Z,3.76
2023-03-04T05:32:08.338Z,3.79
2023-03-04T05:34:39.962Z,3.78
2023-03-04T05:37:11.863Z,3.80
2023-03-04T05:39:43.370Z,3.80
2023-03-04T05:42:15.242Z,3.90
2023-03-04T05:44:46.754Z,3.89
2023-03-04T05:47:18.656Z,3.90
2023-03-04T05:49:50.145Z,3.96
2023-03-04T05:52:22.000Z,3.93
2023-03-04T05:54:53.875Z,3.94
2023-03-04T05:57:25.428Z,3.94
2023-03-04T05:59:56.945Z,3.96
2023-03-04T06:02:28.521Z,3.94
2023-03-04T06:05:00.393Z,3.97
2023-03-04T06:07:31.899Z,4.03
2023-03-04T06:10:03.434Z,4.03
2023-03-04T06:12:34.989Z,3.97
2023-03-04T06:15:07.161Z,4.00
2023-03-04T06:17:41.417Z,4.00
2023-03-04T06:20:13.774Z,4.03
2023-03-04T06:22:45.284Z,4.08
2023-03-04T06:25:17.157Z,4.10
2023-03-04T06:27:50.631Z,4.16
2023-03-04T06:30:22.669Z,4.10
2023-03-04T06:32:54.198Z,4.07
2023-03-04T06:35:26.201Z,4.08
2023-03-04T06:37:57.813Z,4.05
2023-03-04T06:40:29.378Z,4.16
2023-03-04T06:43:00.931Z,4.19
2023-03-04T06:45:32.457Z,4.20
2023-03-04T06:48:03.946Z,4.21
2023-03-04T06:50:35.838Z,4.33
2023-03-04T06:53:07.344Z,4.20
2023-03-04T06:55:39.219Z,4.30
2023-03-04T06:58:10.749Z,4.23
2023-03-04T07:00:42.863Z,4.23
2023-03-04T07:03:14.477Z,4.45
2023-03-04T07:05:46.381Z,4.42
2023-03-04T07:08:18.895Z,4.54
2023-03-04T07:10:51.592Z,4.36
2023-03-04T07:13:23.091Z,4.51
2023-03-04T07:15:54.957Z,4.47
2023-03-04T07:18:26.463Z,4.38
2023-03-04T07:20:58.306Z,4.44
2023-03-04T07:23:29.840Z,4.54
2023-03-04T07:26:01.883Z,4.42
2023-03-04T07:28:33.405Z,4.47
2023-03-04T07:31:05.272Z,4.66
2023-03-04T07:33:36.837Z,4.71
2023-03-04T07:36:08.450Z,4.63
2023-03-04T07:38:39.943Z,4.77
2023-03-04T07:41:11.795Z,4.88
2023-03-04T07:43:43.312Z,5.08
2023-03-04T07:46:14.885Z,5.21
2023-03-04T07:48:46.433Z,5.23
2023-03-04T07:51:18.202Z,5.09
2023-03-04T07:53:49.740Z,5.18
2023-03-04T07:56:21.260Z,4.79
2023-03-04T07:58:53.707Z,4.78
2023-03-04T08:01:25.655Z,4.85
2023-03-04T08:03:57.229Z,4.81
2023-03-04T08:06:28.766Z,4.69
2023-03-04T08:09:00.316Z,4.65
2023-03-04T08:11:32.026Z,4.63
2023-03-04T08:14:03.600Z,4.48
2023-03-04T08:16:35.394Z,4.57
2023-03-04T08:19:06.954Z,4.72
2023-03-04T08:21:38.805Z,4.93
2023-03-04T08:24:10.329Z,5.05
2023-03-04T08:26:42.374Z,5.26
2023-03-04T08:29:13.889Z,5.42
2023-03-04T08:31:48.664Z,5.43
2023-03-04T08:34:20.572Z,5.39
2023-03-04T08:36:52.378Z,5.22
2023-03-04T08:39:23.976Z,5.27
2023-03-04T08:41:55.991Z,5.61
2023-03-04T08:44:27.489Z,5.62
2023-03-04T08:46:59.119Z,5.73
2023-03-04T08:49:30.645Z,5.86
2023-03-04T08:52:02.187Z,5.98
2023-03-04T08:54:33.696Z,5.79
2023-03-04T08:57:08.087Z,5.88
2023-03-04T08:59:39.625Z,5.98
2023-03-04T09:02:11.454Z,6.19
2023-03-04T09:04:43.139Z,6.19
2023-03-04T09:07:14.834Z,6.42
2023-03-04T09:09:46.352Z,6.31
2023-03-04T09:12:17.863Z,6.28
2023-03-04T09:15:01.123Z,6.44
2023-03-04T09:17:40.512Z,6.33
2023-03-04T09:20:12.017Z,6.41
2023-03-04T09:22:43.816Z,6.35
2023-03-04T09:25:15.477Z,6.20
2023-03-04T09:27:47.029Z,6.44
2023-03-04T09:30:18.536Z,6.46
2023-03-04T09:32:50.146Z,6.48
2023-03-04T09:35:21.669Z,6.14
2023-03-04T09:37:53.998Z,6.21
2023-03-04T09:40:25.498Z,6.18
2023-03-04T09:42:58.340Z,6.40
2023-03-04T09:45:29.848Z,6.21
2023-03-04T09:48:01.705Z,6.20
2023-03-04T09:50:33.488Z,6.31
2023-03-04T09:53:05.118Z,6.55
2023-03-04T09:55:36.668Z,6.37
2023-03-04T09:58:08.406Z,6.46
2023-03-04T10:00:40.172Z,6.57
2023-03-04T10:03:11.796Z,6.48
2023-03-04T10:05:43.656Z,6.60
2023-03-04T10:08:15.144Z,6.72
2023-03-04T10:10:47.318Z,6.64
2023-03-04T10:13:18.864Z,6.69
2023-03-04T10:15:54.075Z,6.64
2023-03-04T10:18:25.616Z,6.73
2023-03-04T10:20:57.323Z,6.56
2023-03-04T10:23:28.896Z,6.77
2023-03-04T10:26:00.846Z,6.68
2023-03-04T10:28:32.359Z,6.58
2023-03-04T10:31:04.194Z,6.80
2023-03-04T10:33:35.736Z,6.88
2023-03-04T10:36:07.565Z,6.86
2023-03-04T10:38:39.185Z,6.84
2023-03-04T10:41:11.120Z,7.04
2023-03-04T10:43:45.244Z,7.24
2023-03-04T10:46:16.791Z,7.21
2023-03-04T10:48:48.301Z,6.94
2023-03-04T10:51:20.221Z,7.13
2023-03-04T10:53:51.765Z,7.36
2023-03-04T10:56:23.316Z,7.59
2023-03-04T10:58:54.813Z,7.64
2023-03-04T11:01:26.691Z,7.50
2023-03-04T11:03:58.274Z,7.82
2023-03-04T11:06:31.395Z,7.76
2023-03-04T11:09:03.071Z,7.88
2023-03-04T11:11:35.087Z,8.08
2023-03-04T11:14:06.589Z,8.21
2023-03-04T11:16:38.602Z,8.08
2023-03-04T11:19:10.182Z,8.28
2023-03-04T11:21:41.801Z,8.47
2023-03-04T11:24:27.250Z,8.28
2023-03-04T11:27:00.119Z,8.46
2023-03-04T11:29:31.615Z,8.34
2023-03-04T11:32:03.473Z,8.16
2023-03-04T11:34:35.104Z,8.14
2023-03-04T11:37:06.828Z,7.84
2023-03-04T11:39:38.630Z,7.72
2023-03-04T11:42:10.635Z,7.69
2023-03-04T11:44:42.131Z,7.67
2023-03-04T11:47:13.861Z,7.44
2023-03-04T11:49:45.395Z,7.45
2023-03-04T11:54:58.288Z,7.24
2023-03-04T11:57:29.796Z,7.45
2023-03-04T12:00:01.257Z,7.35
2023-03-04T12:02:32.806Z,7.56
2023-03-04T12:05:04.353Z,7.39
2023-03-04T12:07:36.252Z,7.33
2023-03-04T12:10:07.797Z,7.34
2023-03-04T12:12:39.602Z,7.33
2023-03-04T12:15:11.102Z,7.35
2023-03-04T12:17:42.916Z,7.62
2023-03-04T12:20:14.392Z,7.43
2023-03-04T12:22:45.971Z,7.37
2023-03-04T12:25:18.844Z,7.43
2023-03-04T12:27:51.354Z,7.26
2023-03-04T12:30:22.851Z,7.36
2023-03-04T12:32:54.679Z,7.43
2023-03-04T12:35:26.257Z,7.39
2023-03-04T12:37:58.858Z,7.49
2023-03-04T12:40:30.339Z,7.23
2023-03-04T12:43:02.198Z,7.48
2023-03-04T12:45:33.726Z,7.57
2023-03-04T12:48:05.557Z,7.12
2023-03-04T12:50:38.057Z,7.13
2023-03-04T12:53:10.665Z,7.05
2023-03-04T12:55:42.137Z,7.33
2023-03-04T12:58:13.822Z,7.25
2023-03-04T13:00:45.371Z,7.42
2023-03-04T13:03:17.289Z,7.64
2023-03-04T13:05:48.833Z,7.80
2023-03-04T13:08:20.672Z,7.45
2023-03-04T13:10:52.384Z,7.62
2023-03-04T13:13:24.264Z,7.33
2023-03-04T13:15:55.800Z,7.57
2023-03-04T13:18:27.324Z,7.49
2023-03-04T13:20:59.115Z,7.06
2023-03-04T13:23:31.938Z,7.21
2023-03-04T13:26:03.424Z,6.99
2023-03-04T13:28:34.926Z,7.16
2023-03-04T13:31:06.739Z,6.96
2023-03-04T13:33:38.452Z,6.93
2023-03-04T13:36:11.563Z,6.96
2023-03-04T13:38:43.372Z,7.11
2023-03-04T13:41:14.894Z,7.15
2023-03-04T13:43:46.685Z,6.94
2023-03-04T13:46:18.438Z,6.75
2023-03-04T13:48:50.544Z,6.59
2023-03-04T13:51:29.424Z,6.62
2023-03-04T13:54:03.202Z,6.65
2023-03-04T13:56:37.160Z,6.77
2023-03-04T13:59:09.432Z,6.43
2023-03-04T14:01:40.929Z,6.73
2023-03-04T14:04:12.534Z,6.89
2023-03-04T14:06:44.082Z,7.00
2023-03-04T14:09:15.688Z,6.83
2023-03-04T14:11:47.186Z,6.55
2023-03-04T14:14:18.687Z,6.72
2023-03-04T14:16:50.350Z,6.63
2023-03-04T14:19:22.175Z,6.55
2023-03-04T14:21:53.952Z,6.52
2023-03-04T14:24:25.886Z,6.77
2023-03-04T14:26:57.714Z,6.80
2023-03-04T14:29:31.928Z,6.80
2023-03-04T14:32:04.080Z,5.77
2023-03-04T14:34:36.398Z,6.40
2023-03-04T14:37:08.220Z,6.56
2023-03-04T14:39:39.844Z,6.79
2023-03-04T14:42:11.477Z,6.68
2023-03-04T14:44:44.575Z,6.72
2023-03-04T14:47:17.363Z,6.38
2023-03-04T14:49:48.877Z,6.48
2023-03-04T14:52:20.748Z,6.26
2023-03-04T14:54:52.220Z,6.20
2023-03-04T14:57:24.507Z,6.17
2023-03-04T14:59:56.075Z,6.15
2023-03-04T15:02:31.311Z,6.08
2023-03-04T15:05:02.989Z,5.98
2023-03-04T15:07:34.658Z,6.00
2023-03-04T15:10:06.229Z,6.02
2023-03-04T15:12:38.468Z,6.01
2023-03-04T15:15:09.978Z,6.08
2023-03-04T15:17:42.803Z,6.04
2023-03-04T15:20:14.315Z,5.93
2023-03-04T15:22:46.115Z,6.01
2023-03-04T15:25:20.345Z,5.89
2023-03-04T15:27:54.402Z,5.81
2023-03-04T15:30:27.363Z,5.73
2023-03-04T15:32:59.187Z,5.63
2023-03-04T15:35:30.726Z,5.77
2023-03-04T15:38:02.674Z,5.78
2023-03-04T15:40:34.374Z,5.73
2023-03-04T15:43:05.945Z,5.92
2023-03-04T15:45:38.219Z,5.96
2023-03-04T15:48:10.106Z,5.93
2023-03-04T15:50:41.600Z,5.89
2023-03-04T15:53:13.329Z,4.98
2023-03-04T15:55:44.803Z,5.69
2023-03-04T15:58:16.514Z,5.50
2023-03-04T16:00:48.064Z,5.39
2023-03-04T16:03:20.040Z,5.33
2023-03-04T16:05:51.524Z,5.30
2023-03-04T16:08:25.223Z,5.25
2023-03-04T16:10:56.735Z,5.27
2023-03-04T16:13:28.297Z,5.21
2023-03-04T16:15:59.857Z,5.28
2023-03-04T16:18:31.442Z,5.36
2023-03-04T16:21:04.917Z,5.32
2023-03-04T16:23:37.996Z,5.30
2023-03-04T16:26:09.495Z,5.36
2023-03-04T16:28:41.205Z,5.33
2023-03-04T16:31:12.812Z,5.28
2023-03-04T16:33:45.228Z,5.21
2023-03-04T16:36:16.796Z,5.18
2023-03-04T16:38:48.954Z,5.11
2023-03-04T16:41:20.549Z,5.19
2023-03-04T16:43:52.463Z,5.14
2023-03-04T16:46:24.089Z,5.15
2023-03-04T16:48:55.708Z,5.10
2023-03-04T16:51:27.257Z,5.15
2023-03-04T16:54:00.569Z,5.05
2023-03-04T16:56:32.076Z,5.01
2023-03-04T16:59:03.941Z,5.03
2023-03-04T17:01:36.825Z,5.00
2023-03-04T17:04:08.331Z,5.02
2023-03-04T17:06:40.136Z,4.96
2023-03-04T17:09:12.041Z,5.07
2023-03-04T17:11:43.780Z,5.05
2023-03-04T17:14:15.501Z,4.99
2023-03-04T17:16:47.007Z,4.96
2023-03-04T17:19:19.031Z,4.87
2023-03-04T17:21:50.565Z,4.90
2023-03-04T17:24:22.424Z,4.84
2023-03-04T17:26:53.938Z,4.79
2023-03-04T17:29:26.156Z,4.84
2023-03-04T17:31:57.716Z,4.78
2023-03-04T17:34:29.278Z,4.76
2023-03-04T17:37:01.389Z,4.75
2023-03-04T17:39:32.975Z,4.73
2023-03-04T17:42:04.527Z,4.68
2023-03-04T17:44:36.384Z,4.72
2023-03-04T17:47:07.886Z,4.73
2023-03-04T17:49:39.460Z,4.68
2023-03-04T17:52:11.016Z,4.65
2023-03-04T17:54:42.966Z,4.67
2023-03-04T17:57:14.477Z,3.42
2023-03-04T17:59:46.148Z,4.67
2023-03-04T18:02:17.836Z,4.62
2023-03-04T18:04:50.771Z,4.64
2023-03-04T18:07:22.374Z,4.64
2023-03-04T18:09:54.051Z,4.69
2023-03-04T18:12:25.528Z,4.67
2023-03-04T18:14:57.392Z,4.55
2023-03-04T18:17:28.992Z,4.56
2023-03-04T18:20:02.297Z,4.60
2023-03-04T18:22:33.808Z,4.58
2023-03-04T18:25:05.767Z,4.54
2023-03-04T18:27:39.774Z,4.53
2023-03-04T18:30:11.301Z,4.60
2023-03-04T18:32:51.928Z,4.56
2023-03-04T18:35:24.302Z,4.52
2023-03-04T18:37:55.815Z,4.47
2023-03-04T18:40:27.364Z,4.47
2023-03-04T18:43:00.099Z,4.52
2023-03-04T18:45:31.715Z,4.54
2023-03-04T18:48:03.337Z,4.57
2023-03-04T18:50:35.104Z,4.48
2023-03-04T18:53:06.975Z,4.43
2023-03-04T18:55:38.520Z,4.41
2023-03-04T18:58:10.055Z,4.39
2023-03-04T19:00:41.562Z,4.37
2023-03-04T19:03:13.388Z,4.39
2023-03-04T19:05:45.016Z,4.42
2023-03-04T19:08:16.706Z,4.34
2023-03-04T19:10:48.220Z,4.36
2023-03-04T19:13:22.553Z,4.30
2023-03-04T19:15:54.071Z,4.29
2023-03-04T19:18:26.061Z,4.31
2023-03-04T19:20:57.726Z,4.29
2023-03-04T19:23:29.706Z,4.28
2023-03-04T19:26:01.184Z,4.31
2023-03-04T19:28:32.706Z,4.31
2023-03-04T19:31:04.217Z,4.29
2023-03-04T19:33:35.984Z,4.30
2023-03-04T19:36:07.491Z,4.26
2023-03-04T19:38:39.504Z,4.30
2023-03-04T19:41:11.044Z,4.31
2023-03-04T19:43:42.950Z,4.30
2023-03-04T19:46:14.603Z,4.33
2023-03-04T19:48:46.323Z,4.31
2023-03-04T19:51:17.882Z,4.30
2023-03-04T19:53:51.100Z,4.27
2023-03-04T19:56:22.610Z,4.24
2023-03-04T19:58:54.510Z,4.15
2023-03-04T20:01:28.161Z,4.22
2023-03-04T20:04:00.327Z,4.18
2023-03-04T20:06:31.899Z,4.19
2023-03-04T20:09:03.750Z,4.21
2023-03-04T20:11:41.509Z,4.18
2023-03-04T20:14:22.463Z,4.17
2023-03-04T20:16:54.022Z,4.15
2023-03-04T20:19:25.987Z,4.10
2023-03-04T20:21:57.831Z,4.16
2023-03-04T20:24:29.521Z,4.15
2023-03-04T20:27:01.088Z,4.13
2023-03-04T20:29:32.629Z,4.15
2023-03-04T20:32:04.257Z,4.13
2023-03-04T20:34:36.822Z,4.16
2023-03-04T20:37:08.384Z,4.11
2023-03-04T20:39:40.222Z,4.06
2023-03-04T20:42:12.260Z,4.05
2023-03-04T20:44:44.178Z,4.03
2023-03-04T20:47:15.754Z,4.04
2023-03-04T20:49:47.800Z,4.02
2023-03-04T20:52:19.388Z,4.01
2023-03-04T20:54:51.236Z,4.00
2023-03-04T20:57:22.829Z,3.97
2023-03-04T20:59:54.370Z,4.00
2023-03-04T21:02:25.893Z,3.97
2023-03-04T21:04:57.769Z,3.95
2023-03-04T21:07:29.287Z,3.90
2023-03-04T21:10:01.218Z,3.94
2023-03-04T21:12:32.715Z,3.83
2023-03-04T21:15:04.254Z,3.80
2023-03-04T21:17:35.783Z,3.76
2023-03-04T21:20:07.693Z,3.80
2023-03-04T21:22:39.226Z,3.81
2023-03-04T21:25:11.192Z,3.78
2023-03-04T21:27:43.259Z,3.76
2023-03-04T21:30:15.181Z,3.73
2023-03-04T21:32:46.705Z,3.75
2023-03-04T21:35:19.634Z,3.81
2023-03-04T21:37:51.450Z,3.81
2023-03-04T21:40:23.159Z,3.75
2023-03-04T21:42:54.682Z,3.79
2023-03-04T21:45:26.224Z,3.74
2023-03-04T21:47:57.754Z,3.76
2023-03-04T21:50:29.269Z,3.78
2023-03-04T21:53:00.770Z,3.70
2023-03-04T21:55:32.276Z,3.69
2023-03-04T21:58:03.775Z,2.89
2023-03-04T22:00:35.583Z,3.71
2023-03-04T22:03:07.137Z,3.66
2023-03-04T22:05:38.675Z,3.66
2023-03-04T22:08:10.188Z,3.70
2023-03-04T22:10:41.727Z,3.68
2023-03-04T22:13:13.242Z,3.64
2023-03-04T22:15:45.130Z,3.69
2023-03-04T22:18:16.670Z,3.67
2023-03-04T22:20:48.540Z,3.63
2023-03-04T22:23:21.056Z,3.64
2023-03-04T22:25:52.569Z,3.63
2023-03-04T22:28:28.212Z,3.66
2023-03-04T22:30:59.976Z,3.67
2023-03-04T22:33:37.142Z,3.57
2023-03-04T22:36:08.721Z,3.52
2023-03-04T22:38:40.259Z,3.58
2023-03-04T22:41:11.772Z,3.62
2023-03-04T22:43:43.271Z,3.58
2023-03-04T22:46:15.238Z,3.59
2023-03-04T22:48:46.790Z,3.56
2023-03-04T22:51:18.376Z,3.40
2023-03-04T22:53:50.017Z,3.37
2023-03-04T22:56:21.891Z,3.46
2023-03-04T22:58:53.430Z,2.63
2023-03-04T23:01:25.070Z,3.46
2023-03-04T23:03:56.611Z,3.38
2023-03-04T23:06:30.157Z,3.38
2023-03-04T23:09:01.711Z,3.39
2023-03-04T23:11:35.131Z,3.39
2023-03-04T23:14:07.877Z,3.38
2023-03-04T23:16:42.838Z,3.38
2023-03-04T23:19:14.397Z,3.34
2023-03-04T23:21:46.408Z,3.31
2023-03-04T23:24:19.656Z,3.21
2023-03-04T23:26:52.380Z,3.24
2023-03-04T23:29:24.172Z,3.19
2023-03-04T23:31:55.727Z,3.24
2023-03-04T23:34:27.307Z,3.24
2023-03-04T23:36:58.822Z,3.22
2023-03-04T23:39:30.327Z,3.15
2023-03-04T23:42:01.834Z,3.26
2023-03-04T23:44:33.432Z,3.23
2023-03-04T23:47:04.953Z,3.21
2023-03-04T23:49:36.502Z,3.21
2023-03-04T23:52:08.013Z,3.21
2023-03-04T23:54:40.828Z,3.23
2023-03-04T23:57:12.378Z,3.26
2023-03-04T23:59:44.478Z,3.10
